Time;durP1;ratioP1;P1;durP2;ratioP2;P2;SDS_P1;SDS_P2;PMS_P1;PMS_P2;Temp;Humidity;BMP_temperature;BMP_pressure;BME280_temperature;BME280_humidity;BME280_pressure;Samples;Min_cycle;Max_cycle;Signal;HPM_P1;HPM_P2
2021/12/21 00:01:34;;;;;;;28.10;12.10;;;;;;;-3.75;81.83;100916.48;85336;1288;2820374;-63
2021/12/21 00:03:43;;;;;;;25.60;11.80;;;;;;;-3.71;82.10;100908.88;87376;1286;87245;-63
2021/12/21 00:05:53;;;;;;;23.80;10.80;;;;;;;-3.66;81.89;100906.98;87432;1288;95979;-64
2021/12/21 00:08:08;;;;;;;23.80;11.60;;;;;;;-3.60;81.82;100910.66;87262;1291;80860;-63
2021/12/21 00:10:18;;;;;;;19.20;10.00;;;;;;;-3.49;82.05;100912.73;87297;1288;82397;-63
2021/12/21 00:12:31;;;;;;;21.00;10.60;;;;;;;-3.40;82.35;100911.98;87469;1288;100016;-61
2021/12/21 00:14:50;;;;;;;22.20;10.60;;;;;;;-3.34;81.97;100903.17;87431;1291;89123;-62
2021/12/21 00:17:15;;;;;;;18.80;10.30;;;;;;;-3.33;82.17;100903.67;87410;1288;95795;-63
2021/12/21 00:19:45;;;;;;;24.70;11.20;;;;;;;-3.26;82.20;100906.74;87416;1288;77500;-63
2021/12/21 00:22:06;;;;;;;20.00;11.00;;;;;;;-3.25;82.18;100904.59;87417;1288;82720;-64
2021/12/21 00:24:21;;;;;;;22.00;10.20;;;;;;;-3.23;82.28;100907.31;87430;1287;98799;-64
2021/12/21 00:26:30;;;;;;;19.60;10.00;;;;;;;-3.26;82.12;100908.52;87423;1287;88926;-62
2021/12/21 00:28:48;;;;;;;20.50;10.30;;;;;;;-3.28;82.19;100911.11;87424;1288;95209;-61
2021/12/21 00:31:01;;;;;;;25.00;12.30;;;;;;;-3.29;82.11;100914.17;87403;1287;77907;-61
2021/12/21 00:33:14;;;;;;;22.90;10.70;;;;;;;-3.34;82.23;100912.53;87465;1291;81037;-62
2021/12/21 00:35:23;;;;;;;22.60;11.90;;;;;;;-3.42;82.07;100912.85;87418;1287;99310;-61
2021/12/21 00:37:38;;;;;;;22.60;11.20;;;;;;;-3.46;81.92;100911.14;87392;1287;89153;-63
2021/12/21 00:39:51;;;;;;;24.70;10.10;;;;;;;-3.47;82.04;100916.14;87444;1287;95697;-64
2021/12/21 00:42:01;;;;;;;27.60;11.60;;;;;;;-3.44;82.11;100919.46;87436;1288;79295;-65
2021/12/21 00:44:13;;;;;;;22.80;11.00;;;;;;;-3.41;82.16;100923.70;87446;1287;80867;-64
2021/12/21 00:46:22;;;;;;;25.00;11.00;;;;;;;-3.41;82.28;100930.39;87454;1284;99158;-62
2021/12/21 00:48:35;;;;;;;26.20;11.80;;;;;;;-3.39;82.25;100934.11;87457;1288;89061;-64
2021/12/21 00:50:44;;;;;;;26.60;11.40;;;;;;;-3.38;82.38;100937.96;87428;1288;94914;-62
2021/12/21 00:52:56;;;;;;;25.30;11.00;;;;;;;-3.34;82.17;100939.48;87431;1287;79896;-62
2021/12/21 00:55:07;;;;;;;25.50;11.80;;;;;;;-3.30;82.53;100939.95;87452;1291;80837;-62
2021/12/21 00:57:19;;;;;;;27.00;11.70;;;;;;;-3.28;82.45;100942.09;87464;1287;99138;-62
2021/12/21 00:59:28;;;;;;;23.50;11.50;;;;;;;-3.18;82.52;100941.35;87442;1284;87914;-61
2021/12/21 01:01:41;;;;;;;23.60;11.00;;;;;;;-3.11;82.28;100937.43;87468;1288;94848;-64
2021/12/21 01:03:52;;;;;;;27.70;12.10;;;;;;;-3.12;82.39;100939.55;87442;1291;78579;-63
2021/12/21 01:06:10;;;;;;;23.40;11.20;;;;;;;-3.13;82.55;100944.40;87439;1291;79883;-64
2021/12/21 01:08:23;;;;;;;26.50;11.80;;;;;;;-3.13;82.87;100941.42;87451;1290;98783;-64
2021/12/21 01:10:53;;;;;;;28.00;12.20;;;;;;;-3.14;82.77;100947.08;87429;1288;89193;-63
2021/12/21 01:13:14;;;;;;;28.40;12.30;;;;;;;-3.14;82.77;100944.81;87384;1288;94901;-61
2021/12/21 01:15:41;;;;;;;21.80;9.80;;;;;;;-3.12;82.89;100953.84;87279;1288;80693;-62
2021/12/21 01:17:56;;;;;;;16.20;8.40;;;;;;;-3.07;82.92;100947.71;87270;1290;82861;-64
2021/12/21 01:20:23;;;;;;;12.20;6.40;;;;;;;-3.06;83.17;100947.83;87471;1291;99631;-64
2021/12/21 01:22:50;;;;;;;10.70;5.20;;;;;;;-3.03;83.07;100945.18;87422;1287;89336;-64
2021/12/21 01:25:15;;;;;;;10.20;5.30;;;;;;;-2.99;82.77;100943.73;87389;1288;95602;-66
2021/12/21 01:27:39;;;;;;;8.70;4.80;;;;;;;-2.94;82.74;100945.20;87411;1286;77120;-65
2021/12/21 01:29:58;;;;;;;8.70;4.50;;;;;;;-2.91;82.86;100950.50;87407;1287;82621;-65
2021/12/21 01:32:19;;;;;;;7.70;4.20;;;;;;;-2.93;82.71;100950.61;87460;1291;99342;-60
2021/12/21 01:34:43;;;;;;;9.70;4.10;;;;;;;-2.93;82.52;100954.89;87448;1288;87636;-61
2021/12/21 01:36:57;;;;;;;;;;;;;;;-2.89;82.54;100960.27;87497;1291;95302;-61
2021/12/21 01:39:15;;;;;;;7.50;3.90;;;;;;;-2.92;82.66;100955.70;87407;1284;79089;-61
2021/12/21 01:41:32;;;;;;;9.30;4.60;;;;;;;-2.96;82.59;100953.80;87262;1287;80256;-61
2021/12/21 01:43:53;;;;;;;9.30;4.90;;;;;;;-3.01;82.69;100948.95;87434;1288;98845;-62
2021/12/21 01:51:04;;;;;;;12.40;6.50;;;;;;;-3.08;82.47;100952.16;87442;1288;80334;-65
2021/12/21 01:53:16;;;;;;;13.20;6.30;;;;;;;-3.07;82.36;100951.10;87483;1289;83129;-62
2021/12/21 01:55:25;;;;;;;13.20;5.70;;;;;;;-3.05;82.46;100958.73;87429;1289;98689;-63
2021/12/21 01:57:39;;;;;;;12.80;6.10;;;;;;;-3.00;82.74;100950.33;87446;1288;87526;-67
2021/12/21 01:59:53;;;;;;;13.70;6.30;;;;;;;-2.94;82.60;100949.44;87411;1292;94405;-64
2021/12/21 02:02:06;;;;;;;11.70;6.00;;;;;;;-2.90;82.67;100949.03;87478;1288;77900;-65
2021/12/21 02:04:17;;;;;;;;;;;;;;;-2.88;82.52;100954.59;87472;1288;81375;-64
2021/12/21 02:06:30;;;;;;;13.10;6.50;;;;;;;-2.91;82.60;100956.50;87486;1288;97828;-65
2021/12/21 02:08:43;;;;;;;14.70;7.00;;;;;;;-2.97;82.54;100955.63;87451;1287;86742;-62
2021/12/21 02:10:59;;;;;;;10.40;5.10;;;;;;;-3.01;82.51;100960.95;87438;1288;95167;-66
2021/12/21 02:13:12;;;;;;;13.70;6.80;;;;;;;-3.05;82.21;100964.14;87462;1291;78402;-61
2021/12/21 02:15:25;;;;;;;17.30;7.70;;;;;;;-3.12;82.24;100965.29;87414;1284;81721;-64
2021/12/21 02:18:26;;;;;;;16.10;7.90;;;;;;;-3.21;82.24;100963.88;87495;1287;98535;-64
2021/12/21 02:20:48;;;;;;;15.10;7.40;;;;;;;-3.34;81.98;100971.88;87410;1288;87029;-65
2021/12/21 02:23:05;;;;;;;15.10;7.10;;;;;;;-3.48;82.10;100972.48;87377;1287;94875;-63
2021/12/21 02:28:23;;;;;;;14.60;7.00;;;;;;;-3.58;82.38;100972.91;84606;1324;600231;-61
2021/12/21 02:30:35;;;;;;;15.10;7.40;;;;;;;-3.63;82.33;100978.13;87861;1282;81231;-61
2021/12/21 02:32:47;;;;;;;18.60;8.40;;;;;;;-3.68;82.25;100974.65;87878;1285;83017;-62
2021/12/21 02:34:59;;;;;;;13.10;6.50;;;;;;;-3.70;82.20;100978.48;87839;1283;97801;-64
2021/12/21 02:37:12;;;;;;;16.20;6.90;;;;;;;-3.72;82.35;100978.77;87865;1286;88374;-63
2021/12/21 02:39:25;;;;;;;14.90;6.90;;;;;;;-3.76;82.28;100981.10;87852;1282;95539;-64
2021/12/21 02:41:35;;;;;;;15.20;7.40;;;;;;;-3.79;82.30;100985.72;87647;1286;334128;-62
2021/12/21 02:43:47;;;;;;;14.60;7.00;;;;;;;-3.83;82.30;100985.39;88064;1286;82430;-63
2021/12/21 02:46:00;;;;;;;13.80;6.60;;;;;;;-3.83;82.37;100984.36;88082;1276;97579;-63
2021/12/21 02:48:13;;;;;;;16.20;7.10;;;;;;;-3.84;82.47;100981.77;88103;1282;88291;-64
2021/12/21 02:50:22;;;;;;;13.80;6.50;;;;;;;-3.87;82.36;100982.08;88033;1283;94902;-67
2021/12/21 02:52:35;;;;;;;14.10;6.80;;;;;;;-3.90;82.24;100979.92;88056;1282;82175;-62
2021/12/21 02:54:44;;;;;;;12.50;6.40;;;;;;;-3.88;82.42;100980.73;88020;1280;81971;-62
2021/12/21 02:56:53;;;;;;;12.50;5.70;;;;;;;-3.86;82.26;100984.69;88049;1280;96286;-63
2021/12/21 02:59:02;;;;;;;12.80;5.50;;;;;;;-3.86;82.15;100986.95;88044;1282;89109;-62
2021/12/21 03:01:13;;;;;;;11.00;5.60;;;;;;;-3.87;82.29;100989.48;88027;1286;95528;-62
2021/12/21 03:03:27;;;;;;;12.00;5.20;;;;;;;-3.88;82.21;100994.27;88040;1286;81293;-63
2021/12/21 03:05:39;;;;;;;14.70;6.50;;;;;;;-3.84;82.29;100997.77;88061;1285;83395;-63
2021/12/21 03:08:09;;;;;;;9.60;4.80;;;;;;;-3.83;82.24;100998.38;88042;1282;96524;-62
2021/12/21 03:10:24;;;;;;;10.00;5.10;;;;;;;-3.75;81.93;101004.98;88014;1282;88513;-60
2021/12/21 03:15:00;;;;;;;9.90;4.90;;;;;;;-3.67;82.13;101009.11;88006;1282;77493;-63
2021/12/21 03:17:15;;;;;;;10.90;4.40;;;;;;;-3.71;82.00;101014.62;88074;1282;82934;-62
2021/12/21 03:19:25;;;;;;;9.90;4.70;;;;;;;-3.72;81.73;101016.41;88039;1283;97800;-62
2021/12/21 03:21:41;;;;;;;8.90;5.00;;;;;;;-3.75;81.68;101015.39;88041;1282;87853;-63
2021/12/21 03:23:50;;;;;;;8.30;4.80;;;;;;;-3.78;81.19;101014.48;88034;1283;94095;-64
2021/12/21 03:25:59;;;;;;;13.00;5.70;;;;;;;-3.83;81.20;101013.88;88022;1286;79340;-62
2021/12/21 03:28:11;;;;;;;13.10;5.20;;;;;;;-3.88;81.04;101017.52;88021;1282;81774;-62
2021/12/21 03:30:23;;;;;;;13.30;5.10;;;;;;;-3.91;81.10;101012.93;87918;1278;95739;-62
2021/12/21 03:32:35;;;;;;;15.30;5.30;;;;;;;-3.96;81.07;101011.80;88067;1276;87426;-63
2021/12/21 03:34:48;;;;;;;15.70;5.10;;;;;;;-3.97;81.10;101015.37;88066;1282;95622;-64
2021/12/21 03:37:00;;;;;;;14.20;5.80;;;;;;;-3.96;80.90;101021.29;87930;1282;81486;-62
2021/12/21 03:39:17;;;;;;;15.80;5.30;;;;;;;-3.94;80.77;101022.04;88017;1280;83137;-62
2021/12/21 03:41:30;;;;;;;16.50;5.10;;;;;;;-3.89;80.74;101019.52;88056;1285;97879;-62
2021/12/21 03:43:42;;;;;;;15.30;4.30;;;;;;;-3.85;80.80;101020.14;88052;1282;88968;-62
2021/12/21 03:45:59;;;;;;;11.10;4.60;;;;;;;-3.80;80.74;101023.73;88032;1282;93860;-63
2021/12/21 03:48:14;;;;;;;10.60;4.80;;;;;;;-3.78;80.71;101028.39;88006;1286;78010;-61
2021/12/21 03:50:24;;;;;;;6.90;3.60;;;;;;;-3.79;80.46;101035.11;88038;1282;81540;-62
2021/12/21 03:52:36;;;;;;;7.00;3.10;;;;;;;-3.81;80.41;101041.55;88050;1282;96278;-64
2021/12/21 03:54:48;;;;;;;6.40;3.50;;;;;;;-3.82;80.17;101040.39;88033;1276;88804;-62
2021/12/21 03:56:57;;;;;;;13.50;5.40;;;;;;;-3.85;80.19;101038.48;87942;1282;92529;-61
2021/12/21 03:59:06;;;;;;;13.70;4.40;;;;;;;-3.86;80.12;101045.02;88005;1283;80489;-62
2021/12/21 04:01:16;;;;;;;6.30;3.40;;;;;;;-3.86;80.14;101049.98;88067;1282;82753;-62
2021/12/21 04:03:25;;;;;;;6.60;3.40;;;;;;;-3.90;80.22;101054.57;88027;1280;96869;-63
2021/12/21 04:05:34;;;;;;;6.60;3.50;;;;;;;-3.94;80.06;101056.20;88027;1282;87865;-63
2021/12/21 04:07:47;;;;;;;6.10;3.40;;;;;;;-3.96;79.96;101058.57;88050;1282;96631;-63
2021/12/21 04:09:56;;;;;;;7.30;3.50;;;;;;;-3.99;79.86;101056.63;87900;1282;77643;-66
2021/12/21 04:12:06;;;;;;;5.20;3.00;;;;;;;-4.01;79.94;101061.64;88055;1282;80012;-65
2021/12/21 04:14:19;;;;;;;6.70;3.20;;;;;;;-4.01;79.89;101065.23;88050;1274;96638;-64
2021/12/21 04:16:31;;;;;;;7.60;4.10;;;;;;;-4.02;79.61;101069.30;88039;1286;88227;-60
2021/12/21 04:18:40;;;;;;;6.80;3.90;;;;;;;-3.99;79.84;101070.52;88029;1285;95484;-61
2021/12/21 04:20:52;;;;;;;6.20;3.40;;;;;;;-3.95;79.81;101076.46;88028;1276;81476;-61
2021/12/21 04:23:01;;;;;;;5.40;3.40;;;;;;;-3.89;79.79;101078.95;88043;1285;81111;-62
2021/12/21 04:25:12;;;;;;;6.90;4.50;;;;;;;-3.87;79.61;101080.61;88059;1282;97947;-64
2021/12/21 04:27:21;;;;;;;6.10;3.30;;;;;;;-3.86;79.64;101080.18;88028;1286;88791;-63
2021/12/21 04:29:33;;;;;;;5.70;3.90;;;;;;;-3.86;79.30;101084.06;88022;1282;94525;-62
2021/12/21 04:31:46;;;;;;;7.00;3.50;;;;;;;-3.91;79.28;101086.64;88031;1282;78904;-61
2021/12/21 04:33:55;;;;;;;5.10;3.10;;;;;;;-3.94;79.05;101093.69;88053;1282;81444;-61
2021/12/21 04:36:06;;;;;;;7.10;3.40;;;;;;;-4.01;79.10;101095.63;88031;1281;96641;-61
2021/12/21 04:38:22;;;;;;;6.50;3.50;;;;;;;-4.07;78.71;101101.70;88049;1283;88238;-64
2021/12/21 04:40:41;;;;;;;5.50;3.20;;;;;;;-4.11;79.11;101107.56;88028;1277;93009;-63
2021/12/21 04:42:49;;;;;;;4.60;2.70;;;;;;;-4.15;78.79;101115.32;88034;1286;78877;-60
2021/12/21 04:44:58;;;;;;;4.80;2.80;;;;;;;-4.22;78.51;101119.91;88012;1285;82748;-61
2021/12/21 04:47:08;;;;;;;4.70;2.70;;;;;;;-4.29;77.96;101121.84;88015;1286;96454;-63
2021/12/21 04:49:20;;;;;;;3.60;2.30;;;;;;;-4.33;77.84;101121.01;88066;1274;87813;-63
2021/12/21 04:51:29;;;;;;;3.80;2.30;;;;;;;-4.39;77.57;101126.21;87838;1285;94084;-63
2021/12/21 04:53:42;;;;;;;4.40;2.60;;;;;;;-4.49;77.43;101129.55;88031;1282;78133;-63
2021/12/21 04:55:55;;;;;;;3.70;2.40;;;;;;;-4.53;77.19;101133.10;88042;1283;80901;-64
2021/12/21 04:58:04;;;;;;;4.60;2.10;;;;;;;-4.56;77.20;101137.13;88040;1282;98867;-62
2021/12/21 05:00:16;;;;;;;3.30;2.00;;;;;;;-4.62;77.24;101143.57;88027;1285;87531;-61
2021/12/21 05:02:25;;;;;;;4.40;2.50;;;;;;;-4.66;77.16;101147.12;88079;1282;94688;-62
2021/12/21 05:04:38;;;;;;;3.80;2.40;;;;;;;-4.70;77.20;101147.11;88005;1286;79541;-62
2021/12/21 05:06:50;;;;;;;4.10;2.30;;;;;;;-4.75;76.78;101149.13;88004;1286;80171;-65
2021/12/21 05:09:09;;;;;;;4.40;2.20;;;;;;;-4.78;76.74;101150.34;88031;1282;97266;-64
2021/12/21 05:11:19;;;;;;;4.80;2.80;;;;;;;-4.83;76.32;101160.42;88046;1286;87547;-63
2021/12/21 05:13:31;;;;;;;4.70;2.30;;;;;;;-4.88;76.31;101162.39;88007;1283;94830;-63
2021/12/21 05:15:42;;;;;;;4.30;2.30;;;;;;;-4.91;76.56;101161.70;88000;1286;77971;-64
2021/12/21 05:17:51;;;;;;;6.60;3.40;;;;;;;-4.99;76.31;101162.92;88063;1282;80990;-63
2021/12/21 05:20:01;;;;;;;6.80;4.50;;;;;;;-5.09;76.00;101165.04;88041;1282;96036;-62
2021/12/21 05:22:15;;;;;;;4.00;2.40;;;;;;;-5.22;75.38;101170.36;88031;1286;88445;-63
2021/12/21 05:24:26;;;;;;;;;;;;;;;-5.37;75.02;101168.05;88055;1286;95002;-63
2021/12/21 05:26:39;;;;;;;6.30;1.70;;;;;;;-5.50;75.11;101167.10;88072;1282;78576;-62
2021/12/21 05:28:48;;;;;;;2.30;1.70;;;;;;;-5.62;75.11;101172.38;88039;1277;80410;-61
2021/12/21 05:31:01;;;;;;;3.50;1.70;;;;;;;-5.73;74.64;101176.73;88014;1282;97246;-61
2021/12/21 05:33:15;;;;;;;5.10;1.70;;;;;;;-5.83;74.81;101179.80;88037;1282;89468;-62
2021/12/21 05:35:25;;;;;;;3.00;1.60;;;;;;;-5.91;74.83;101179.48;88021;1282;95538;-62
2021/12/21 05:37:40;;;;;;;3.30;1.50;;;;;;;-5.95;74.63;101180.17;87999;1286;80863;-62
2021/12/21 05:39:58;;;;;;;3.30;1.50;;;;;;;-5.98;74.85;101183.65;88022;1286;81686;-63
2021/12/21 05:42:09;;;;;;;4.70;1.60;;;;;;;-5.95;74.70;101191.43;88023;1286;97866;-63
2021/12/21 05:44:23;;;;;;;3.80;1.40;;;;;;;-5.94;74.62;101193.48;88040;1282;88313;-63
2021/12/21 05:46:30;;;;;;;;;;;;;;;-5.92;74.68;101196.71;87903;1282;95105;-66
2021/12/21 05:48:43;;;;;;;3.40;1.40;;;;;;;-5.90;74.54;101200.48;88045;1282;80426;-64
2021/12/21 05:50:53;;;;;;;4.10;1.80;;;;;;;-5.89;74.48;101202.70;87920;1285;81953;-65
2021/12/21 05:53:05;;;;;;;3.10;1.70;;;;;;;-5.88;74.53;101208.46;88036;1283;97636;-63
2021/12/21 05:55:20;;;;;;;2.70;1.50;;;;;;;-5.89;74.51;101210.79;88039;1273;87007;-64
2021/12/21 05:57:33;;;;;;;2.60;1.90;;;;;;;-5.95;74.52;101212.11;88012;1287;94602;-63
2021/12/21 05:59:46;;;;;;;3.10;1.50;;;;;;;-6.02;74.46;101215.01;87994;1282;80339;-63
2021/12/21 06:01:58;;;;;;;5.40;2.70;;;;;;;-6.07;74.51;101215.58;87989;1280;82134;-62
2021/12/21 06:04:08;;;;;;;5.40;2.80;;;;;;;-6.06;74.39;101216.95;88043;1282;98581;-63
2021/12/21 06:06:17;;;;;;;4.50;2.30;;;;;;;-6.06;74.28;101220.45;87998;1284;88318;-63
2021/12/21 06:08:29;;;;;;;3.50;1.90;;;;;;;-6.09;74.23;101223.20;88034;1282;95052;-63
2021/12/21 06:10:43;;;;;;;4.20;1.90;;;;;;;-6.10;74.33;101227.46;87997;1286;81878;-64
2021/12/21 06:15:33;;;;;;;4.20;2.00;;;;;;;-6.14;74.14;101226.92;87440;1289;97342;-66
2021/12/21 06:22:45;;;;;;;6.60;2.70;;;;;;;-6.20;74.02;101235.27;88026;1286;79029;-61
2021/12/21 06:27:35;;;;;;;3.70;1.80;;;;;;;-6.27;73.89;101244.11;87784;1286;99039;-66
2021/12/21 06:29:45;;;;;;;3.10;2.10;;;;;;;-6.30;74.12;101241.82;88036;1285;87775;-65
2021/12/21 06:31:56;;;;;;;4.70;2.30;;;;;;;-6.34;74.02;101245.27;88039;1281;93108;-65
2021/12/21 06:34:05;;;;;;;4.10;1.90;;;;;;;-6.38;74.09;101245.66;88026;1282;78323;-67
2021/12/21 06:36:19;;;;;;;6.80;2.00;;;;;;;-6.42;74.02;101250.19;88059;1288;79776;-65
2021/12/21 06:38:27;;;;;;;;;;;;;;;-6.47;74.07;101247.40;88026;1282;97834;-67
2021/12/21 06:40:38;;;;;;;4.90;1.90;;;;;;;-6.48;74.20;101254.95;88064;1281;88928;-69
2021/12/21 06:42:51;;;;;;;6.30;2.40;;;;;;;-6.49;74.23;101257.30;87998;1286;94197;-63
2021/12/21 06:45:02;;;;;;;4.70;2.30;;;;;;;-6.58;74.22;101254.84;88000;1283;80414;-63
2021/12/21 06:52:16;;;;;;;12.40;9.10;;;;;;;-6.68;74.33;101254.38;88018;1281;88767;-65
2021/12/21 06:54:26;;;;;;;;;;;;;;;-6.75;74.20;101256.41;88024;1286;94833;-67
2021/12/21 06:56:38;;;;;;;18.10;12.60;;;;;;;-6.81;74.34;101258.38;87988;1286;81106;-67
2021/12/21 06:58:53;;;;;;;19.00;14.10;;;;;;;-6.87;74.48;101259.13;87998;1281;80557;-66
2021/12/21 07:01:07;;;;;;;28.20;16.60;;;;;;;-6.92;74.25;101258.44;88058;1281;96927;-66
2021/12/21 07:03:21;;;;;;;24.10;15.10;;;;;;;-7.00;74.41;101261.23;88026;1282;88465;-67
2021/12/21 07:05:36;;;;;;;25.20;15.60;;;;;;;-7.15;74.66;101258.61;88013;1286;95307;-67
2021/12/21 07:07:46;;;;;;;24.20;14.80;;;;;;;-7.20;74.55;101262.65;88045;1285;80343;-67
2021/12/21 07:10:00;;;;;;;24.20;14.60;;;;;;;-7.22;74.53;101266.23;88022;1285;79665;-68
2021/12/21 07:12:30;;;;;;;19.30;12.60;;;;;;;-7.30;74.73;101269.14;87715;1276;96907;-61
2021/12/21 07:19:36;;;;;;;18.00;8.90;;;;;;;-7.49;75.05;101274.24;87624;1288;80275;-68
2021/12/21 07:21:48;;;;;;;16.50;9.00;;;;;;;-7.55;74.80;101274.45;87441;1290;82813;-61
2021/12/21 07:24:00;;;;;;;16.30;8.90;;;;;;;-7.53;74.98;101275.45;87588;1289;99060;-61
2021/12/21 07:26:12;;;;;;;22.10;12.00;;;;;;;-7.59;75.05;101276.49;87663;1285;88959;-64
2021/12/21 07:28:26;;;;;;;22.20;11.30;;;;;;;-7.60;75.34;101276.91;87603;1286;92739;-67
2021/12/21 07:30:37;;;;;;;14.00;7.40;;;;;;;-7.57;75.43;101275.38;87507;1289;79299;-63
2021/12/21 07:32:46;;;;;;;14.40;7.30;;;;;;;-7.51;75.36;101271.67;87630;1289;80652;-61
2021/12/21 07:34:59;;;;;;;11.10;5.80;;;;;;;-7.49;75.27;101269.51;87617;1288;97742;-60
2021/12/21 07:37:11;;;;;;;;;;;;;;;-7.52;75.40;101271.52;87647;1288;87761;-66
2021/12/21 07:39:26;;;;;;;10.20;5.80;;;;;;;-7.59;75.47;101271.79;87612;1284;93236;-68
2021/12/21 07:41:39;;;;;;;10.70;6.30;;;;;;;-7.55;75.43;101273.55;87611;1289;80986;-62
2021/12/21 07:43:48;;;;;;;13.20;7.30;;;;;;;-7.45;75.39;101270.41;87639;1286;80291;-62
2021/12/21 07:46:01;;;;;;;12.10;7.10;;;;;;;-7.27;75.33;101273.25;87607;1289;97835;-68
2021/12/21 07:48:12;;;;;;;13.10;6.90;;;;;;;-7.15;75.35;101275.24;87631;1284;87380;-70
2021/12/21 07:50:25;;;;;;;14.60;6.60;;;;;;;-6.85;75.21;101278.13;87628;1289;93002;-63
2021/12/21 07:52:36;;;;;;;12.50;6.00;;;;;;;-6.46;74.70;101281.90;87632;1289;79760;-61
2021/12/21 07:54:46;;;;;;;11.60;6.50;;;;;;;-6.23;74.35;101281.48;87636;1291;81405;-63
2021/12/21 07:56:59;;;;;;;11.60;6.70;;;;;;;-6.08;74.06;101281.89;87621;1288;99262;-67
2021/12/21 07:59:11;;;;;;;16.10;6.70;;;;;;;-6.01;74.01;101285.30;87639;1288;86869;-68
2021/12/21 08:01:24;;;;;;;13.10;6.60;;;;;;;-6.04;73.99;101290.84;87634;1289;95144;-62
2021/12/21 08:03:35;;;;;;;12.20;6.30;;;;;;;-5.94;74.11;101289.38;87637;1289;81423;-61
2021/12/21 08:05:51;;;;;;;10.60;5.80;;;;;;;-5.70;73.94;101287.78;87783;1283;81843;-66
2021/12/21 08:08:11;;;;;;;12.40;6.60;;;;;;;-5.51;73.83;101282.95;87758;1287;98495;-64
2021/12/21 08:10:29;;;;;;;17.20;8.10;;;;;;;-5.60;73.80;101282.98;87652;1280;89971;-64
2021/12/21 08:12:40;;;;;;;17.30;9.10;;;;;;;-5.62;73.98;101285.69;87752;1286;95031;-64
2021/12/21 08:14:51;;;;;;;18.00;9.10;;;;;;;-5.61;73.74;101288.82;87767;1287;77655;-63
2021/12/21 08:17:04;;;;;;;17.20;8.70;;;;;;;-5.61;73.66;101287.59;87811;1289;81754;-63
2021/12/21 08:19:17;;;;;;;21.00;10.20;;;;;;;-5.60;73.72;101289.98;87782;1285;97822;-63
2021/12/21 08:21:30;;;;;;;22.20;11.30;;;;;;;-5.57;73.70;101289.33;87693;1287;88174;-63
2021/12/21 08:23:44;;;;;;;22.80;11.70;;;;;;;-5.54;73.84;101286.20;87760;1287;95651;-61
2021/12/21 08:25:57;;;;;;;18.40;9.40;;;;;;;-5.57;73.89;101285.83;87732;1286;78600;-61
2021/12/21 08:28:10;;;;;;;16.60;9.60;;;;;;;-5.61;73.88;101283.36;87777;1286;81668;-60
2021/12/21 08:30:23;;;;;;;16.50;8.50;;;;;;;-5.46;74.09;101280.62;87793;1287;98270;-62
2021/12/21 08:32:31;;;;;;;16.40;8.70;;;;;;;-4.79;74.25;101277.23;87797;1287;86861;-61
2021/12/21 08:34:44;;;;;;;16.90;8.20;;;;;;;-4.05;73.74;101276.94;87765;1287;94950;-61
2021/12/21 08:36:56;;;;;;;12.70;8.00;;;;;;;-3.31;73.29;101275.11;87786;1281;78623;-65
2021/12/21 08:39:09;;;;;;;12.80;7.80;;;;;;;-2.89;72.69;101273.40;87757;1289;81433;-61
2021/12/21 08:41:23;;;;;;;12.80;6.90;;;;;;;-3.12;72.31;101271.09;87765;1284;96426;-61
2021/12/21 08:43:35;;;;;;;10.60;6.10;;;;;;;-3.41;72.18;101275.46;87769;1285;87545;-60
2021/12/21 08:45:46;;;;;;;11.00;6.00;;;;;;;-3.68;72.02;101271.75;87722;1285;93247;-65
2021/12/21 08:47:58;;;;;;;8.50;5.00;;;;;;;-3.99;71.68;101270.36;87779;1283;80416;-65
2021/12/21 08:50:18;;;;;;;11.90;5.20;;;;;;;-4.25;72.06;101271.64;87756;1283;83442;-64
2021/12/21 08:52:29;;;;;;;10.90;5.50;;;;;;;-4.12;72.25;101263.62;87750;1283;98154;-64
2021/12/21 08:54:39;;;;;;;11.30;6.20;;;;;;;-3.70;72.30;101265.70;87755;1280;89201;-64
2021/12/21 08:56:51;;;;;;;13.30;7.10;;;;;;;-2.96;72.19;101266.17;87778;1283;95009;-65
2021/12/21 08:59:04;;;;;;;14.90;8.40;;;;;;;-2.10;72.02;101261.15;87751;1280;78824;-65
2021/12/21 09:01:13;;;;;;;16.20;9.10;;;;;;;-1.23;71.57;101255.25;87779;1289;81078;-64
2021/12/21 09:03:27;;;;;;;15.00;8.80;;;;;;;-0.59;70.97;101246.45;87758;1287;98726;-59
2021/12/21 09:05:37;;;;;;;12.00;7.70;;;;;;;-0.20;70.68;101241.78;87786;1287;86546;-59
2021/12/21 09:07:48;;;;;;;12.60;6.80;;;;;;;0.14;70.10;101234.70;87764;1275;91889;-59
2021/12/21 09:09:57;;;;;;;8.90;5.30;;;;;;;0.26;69.22;101237.27;87741;1289;79478;-61
2021/12/21 09:12:12;;;;;;;7.70;5.30;;;;;;;0.26;68.47;101239.88;87776;1285;80572;-65
2021/12/21 09:14:31;;;;;;;6.00;4.00;;;;;;;0.13;67.98;101236.16;87733;1283;98016;-64
2021/12/21 09:16:42;;;;;;;7.30;4.70;;;;;;;0.28;67.42;101237.32;87759;1285;88547;-60
2021/12/21 09:18:58;;;;;;;7.90;4.40;;;;;;;0.17;67.32;101235.20;87735;1284;93587;-60
2021/12/21 09:21:07;;;;;;;6.90;4.10;;;;;;;0.38;66.41;101231.98;87735;1283;77141;-65
2021/12/21 09:23:18;;;;;;;7.40;4.10;;;;;;;0.78;66.37;101224.94;87762;1283;82881;-65
2021/12/21 09:25:31;;;;;;;7.20;4.10;;;;;;;1.28;66.29;101228.45;87737;1285;97448;-66
2021/12/21 09:27:44;;;;;;;5.50;3.60;;;;;;;1.78;65.77;101224.95;87763;1283;87218;-66
2021/12/21 09:29:57;;;;;;;7.20;4.20;;;;;;;2.18;65.35;101224.23;87744;1283;93171;-66
2021/12/21 09:32:13;;;;;;;9.70;6.20;;;;;;;2.45;64.79;101221.98;87782;1288;78580;-67
2021/12/21 09:34:23;;;;;;;8.10;5.80;;;;;;;2.79;64.44;101218.66;87787;1283;82381;-65
2021/12/21 09:36:37;;;;;;;12.30;7.30;;;;;;;2.96;64.06;101214.80;87791;1289;97055;-60
2021/12/21 09:38:46;;;;;;;11.60;7.50;;;;;;;3.15;63.61;101209.35;87789;1286;88634;-65
2021/12/21 09:41:01;;;;;;;16.30;9.80;;;;;;;3.45;62.45;101207.27;87754;1284;94818;-64
2021/12/21 09:43:15;;;;;;;16.70;10.10;;;;;;;3.59;62.31;101207.52;87773;1283;78546;-66
2021/12/21 09:45:25;;;;;;;14.60;8.50;;;;;;;3.55;62.10;101206.60;87799;1284;81547;-65
2021/12/21 09:47:35;;;;;;;12.30;7.90;;;;;;;3.66;61.80;101214.05;87700;1284;97682;-65
2021/12/21 09:49:49;;;;;;;11.20;7.50;;;;;;;3.91;60.02;101213.27;87777;1281;86002;-66
2021/12/21 09:51:59;;;;;;;11.50;7.60;;;;;;;4.21;60.37;101213.00;87724;1286;94664;-66
2021/12/21 09:54:08;;;;;;;11.60;7.30;;;;;;;4.21;60.45;101206.79;87737;1287;77804;-66
2021/12/21 09:56:19;;;;;;;12.40;8.60;;;;;;;4.36;59.62;101208.02;87757;1282;82630;-59
2021/12/21 09:58:28;;;;;;;12.00;7.90;;;;;;;4.31;59.81;101206.52;87719;1283;97459;-62
2021/12/21 10:00:38;;;;;;;10.30;6.80;;;;;;;4.28;59.88;101209.95;87767;1285;88615;-65
2021/12/21 10:02:49;;;;;;;9.70;5.20;;;;;;;4.50;59.31;101210.91;87776;1285;94084;-65
2021/12/21 10:05:03;;;;;;;7.90;4.70;;;;;;;4.57;58.99;101208.85;87745;1289;81039;-65
2021/12/21 10:07:18;;;;;;;8.10;4.30;;;;;;;4.68;58.94;101204.02;87775;1287;80152;-60
2021/12/21 10:09:36;;;;;;;6.50;4.60;;;;;;;4.75;57.76;101201.06;87802;1283;97937;-61
2021/12/21 10:11:50;;;;;;;8.90;4.60;;;;;;;4.68;57.51;101195.11;87764;1291;88709;-60
2021/12/21 10:14:09;;;;;;;6.60;4.10;;;;;;;4.69;56.85;101194.06;87739;1283;92617;-60
2021/12/21 10:16:24;;;;;;;7.10;4.80;;;;;;;4.82;55.27;101199.36;87707;1288;77993;-66
2021/12/21 10:18:38;;;;;;;9.00;5.30;;;;;;;4.81;55.15;101205.36;87787;1276;83028;-67
2021/12/21 10:20:52;;;;;;;9.40;5.70;;;;;;;4.62;54.91;101205.96;87809;1288;98096;-64
2021/12/21 10:23:07;;;;;;;7.90;4.30;;;;;;;4.26;54.92;101209.73;87757;1285;89594;-68
2021/12/21 10:25:16;;;;;;;7.20;4.80;;;;;;;3.80;54.00;101216.84;87808;1283;93158;-63
2021/12/21 10:27:27;;;;;;;7.50;4.30;;;;;;;3.03;53.94;101224.57;87777;1287;78521;-65
2021/12/21 10:29:45;;;;;;;7.50;4.00;;;;;;;2.29;54.78;101231.77;87760;1283;82104;-67
2021/12/21 10:31:55;;;;;;;7.70;4.00;;;;;;;1.69;55.49;101235.89;87780;1283;96192;-61
2021/12/21 10:34:11;;;;;;;6.20;3.70;;;;;;;1.31;54.48;101234.31;87793;1283;89044;-60
2021/12/21 10:36:22;;;;;;;7.70;4.30;;;;;;;0.83;55.24;101231.84;87791;1283;92379;-59
2021/12/21 10:38:35;;;;;;;5.00;3.10;;;;;;;0.42;55.69;101233.17;87751;1286;77659;-62
2021/12/21 10:40:53;;;;;;;5.40;3.50;;;;;;;-0.06;56.55;101231.10;87830;1284;82555;-64
2021/12/21 10:43:09;;;;;;;6.10;3.80;;;;;;;-0.36;57.80;101232.18;87036;1279;96578;-63
2021/12/21 10:45:28;;;;;;;5.40;3.40;;;;;;;-0.66;57.85;101224.58;87775;1283;88547;-61
2021/12/21 10:47:39;;;;;;;6.80;3.90;;;;;;;-0.91;58.36;101224.11;87764;1285;92725;-61